This is the latest recevied weather packets stored in our database for station/object LRSM. If no packets are shown the sender has not sent any weather packets the latest 10 day(s).
| Time | Temp. | Humidity | Pressure | Rain* | Wind** | Luminosity | Snow |
|---|---|---|---|---|---|---|---|
| 1777875513 | 12.78° C | 55% | 1020 hPa | - | - | - | - |
| 1777874613 | 12.78° C | 55% | 1020 hPa | - | - | - | - |
| 1777873713 | 11.11° C | 62% | 1020 hPa | - | - | - | - |
| 1777872814 | 11.11° C | 62% | 1020 hPa | - | - | - | - |
| 1777871913 | 10° C | 62% | 1020 hPa | - | - | - | - |
| 1777871022 | 10° C | 62% | 1020 hPa | - | - | - | - |
| 1777870113 | 7.78° C | 71% | 1019 hPa | - | - | - | - |
| 1777869212 | 7.78° C | 71% | 1019 hPa | - | - | - | - |
| 1777868313 | 6.11° C | 76% | 1019 hPa | - | - | - | - |
| 1777866513 | 5° C | 76% | 1019 hPa | - | - | - | - |
| 1777843113 | 11.11° C | 58% | 1018 hPa | - | - | - | - |
| 1777837738 | 12.22° C | 54% | 1018 hPa | - | - | - | - |
| 1777836892 | 12.22° C | 54% | 1018 hPa | - | - | - | - |
| 1777835013 | 12.78° C | 51% | 1018 hPa | - | - | - | - |
| 1777834191 | 16.11° C | 42% | 1018 hPa | - | - | - | - |
| 1777833212 | 16.11° C | 42% | 1018 hPa | - | - | - | - |
| 1777832312 | 15° C | 45% | 1018 hPa | - | - | - | - |
| 1777826912 | 21.11° C | 29% | 1018 hPa | - | - | - | - |
| 1777821513 | 21.11° C | 27% | 1018 hPa | - | - | - | - |
| 1777817913 | 21.11° C | 27% | 1019 hPa | - | - | - | - |
| 1777814313 | 21.11° C | 27% | 1020 hPa | - | - | - | - |
| 1777809813 | 20° C | 28% | 1020 hPa | - | - | - | - |
| 1777808913 | 18.89° C | 30% | 1021 hPa | - | - | - | - |
| 1777804421 | 17.78° C | 32% | 1022 hPa | - | - | - | - |
| 1777800813 | 17.22° C | 34% | 1022 hPa | - | - | - | - |
* Rain since midnight (hover to see other rain measurements)
** Current wind speed in m/s (hover to see current wind gust speed)